createdAt,value
2018-09-17T00:00:25.117Z,14.50
2018-09-17T00:05:27.646Z,14.40
2018-09-17T00:10:30.209Z,14.40
2018-09-17T00:15:32.840Z,14.30
2018-09-17T00:20:35.406Z,14.20
2018-09-17T00:25:37.954Z,14.00
2018-09-17T00:30:40.514Z,13.90
2018-09-17T00:35:43.048Z,13.70
2018-09-17T00:40:45.630Z,13.60
2018-09-17T00:45:48.172Z,13.70
2018-09-17T00:50:50.780Z,13.40
2018-09-17T00:55:53.337Z,13.30
2018-09-17T01:00:55.911Z,13.30
2018-09-17T01:05:58.446Z,13.20
2018-09-17T01:11:00.995Z,13.30
2018-09-17T01:16:03.549Z,13.30
2018-09-17T01:21:06.156Z,13.30
2018-09-17T01:26:08.725Z,13.20
2018-09-17T01:31:11.263Z,13.10
2018-09-17T01:36:13.807Z,13.10
2018-09-17T01:41:17.015Z,13.00
2018-09-17T01:46:19.551Z,12.80
2018-09-17T01:51:22.058Z,12.70
2018-09-17T01:56:24.640Z,13.10
2018-09-17T02:01:27.170Z,12.50
2018-09-17T02:06:29.686Z,12.40
2018-09-17T02:11:32.337Z,12.40
2018-09-17T02:16:34.883Z,12.40
2018-09-17T02:21:37.509Z,12.40
2018-09-17T02:26:40.088Z,12.30
2018-09-17T02:31:42.667Z,12.30
2018-09-17T02:36:45.280Z,12.20
2018-09-17T02:41:47.920Z,12.10
2018-09-17T02:46:50.503Z,12.00
2018-09-17T02:51:53.083Z,12.00
2018-09-17T02:56:55.620Z,12.00
2018-09-17T03:01:58.227Z,12.00
2018-09-17T03:07:00.780Z,11.90
2018-09-17T03:12:03.304Z,11.80
2018-09-17T03:17:11.742Z,11.80
2018-09-17T03:22:14.949Z,11.70
2018-09-17T03:27:17.496Z,11.70
2018-09-17T03:32:20.080Z,11.70
2018-09-17T03:37:26.005Z,11.70
2018-09-17T03:42:29.135Z,11.60
2018-09-17T03:47:31.663Z,11.60
2018-09-17T03:52:34.178Z,11.60
2018-09-17T03:57:36.707Z,11.70
2018-09-17T04:02:39.228Z,11.60
2018-09-17T04:07:41.735Z,11.70
2018-09-17T04:12:44.304Z,11.70
2018-09-17T04:17:46.895Z,11.70
2018-09-17T04:22:49.494Z,11.90
2018-09-17T04:27:51.978Z,11.90
2018-09-17T04:32:54.643Z,11.90
2018-09-17T04:37:57.247Z,11.80
2018-09-17T04:43:00.600Z,11.70
2018-09-17T04:48:03.176Z,11.70
2018-09-17T04:53:05.706Z,11.50
2018-09-17T04:58:08.271Z,11.40
2018-09-17T05:03:10.859Z,11.40
2018-09-17T05:08:13.383Z,11.40
2018-09-17T05:13:15.996Z,11.40
2018-09-17T05:18:18.443Z,11.40
2018-09-17T05:23:20.984Z,11.40
2018-09-17T05:28:23.543Z,11.50
2018-09-17T05:33:26.098Z,11.60
2018-09-17T05:38:28.644Z,11.80
2018-09-17T05:43:31.168Z,11.90
2018-09-17T05:48:33.752Z,12.10
2018-09-17T05:53:36.295Z,12.20
2018-09-17T05:58:38.868Z,12.20
2018-09-17T06:03:41.440Z,12.30
2018-09-17T06:08:43.996Z,12.40
2018-09-17T06:13:46.591Z,12.50
2018-09-17T06:18:49.126Z,12.70
2018-09-17T06:23:52.338Z,12.90
2018-09-17T06:28:54.932Z,13.10
2018-09-17T06:33:57.422Z,13.30
2018-09-17T06:38:59.970Z,13.70
2018-09-17T06:44:02.704Z,13.80
2018-09-17T06:49:05.271Z,14.10
2018-09-17T06:54:07.811Z,14.40
2018-09-17T06:59:10.379Z,14.70
2018-09-17T07:04:12.943Z,15.00
2018-09-17T07:09:15.500Z,15.30
2018-09-17T07:14:18.044Z,15.50
2018-09-17T07:19:20.635Z,15.80
2018-09-17T07:24:23.150Z,16.10
2018-09-17T07:29:25.687Z,16.50
2018-09-17T07:34:28.204Z,16.70
2018-09-17T07:39:30.756Z,16.90
2018-09-17T07:44:33.300Z,17.20
2018-09-17T07:49:35.833Z,17.50
2018-09-17T07:54:38.362Z,18.80
2018-09-17T07:59:40.872Z,18.20
2018-09-17T08:04:43.459Z,19.30
2018-09-17T08:09:46.004Z,19.80
2018-09-17T08:14:48.577Z,21.20
2018-09-17T08:19:51.130Z,22.30
2018-09-17T08:24:53.639Z,23.50
2018-09-17T08:29:56.206Z,23.90
2018-09-17T08:34:58.994Z,24.30
2018-09-17T08:40:01.578Z,26.00
2018-09-17T08:45:04.557Z,25.70
2018-09-17T08:50:07.194Z,26.70
2018-09-17T08:55:10.731Z,26.80
2018-09-17T09:00:17.804Z,27.60
2018-09-17T09:05:26.012Z,27.80
2018-09-17T09:10:34.140Z,27.50
2018-09-17T09:15:39.284Z,27.80
2018-09-17T09:20:41.828Z,28.70
2018-09-17T09:25:44.401Z,28.80
2018-09-17T09:30:47.023Z,30.50
2018-09-17T09:35:49.514Z,30.50
2018-09-17T09:40:52.088Z,31.30
2018-09-17T09:45:54.703Z,32.10
2018-09-17T09:50:57.234Z,32.40
2018-09-17T09:55:59.782Z,31.30
2018-09-17T10:01:07.908Z,30.80
2018-09-17T10:06:11.471Z,30.90
2018-09-17T10:11:19.852Z,31.50
2018-09-17T10:16:22.460Z,31.30
2018-09-17T10:21:25.009Z,31.10
2018-09-17T10:26:27.553Z,31.10
2018-09-17T10:31:30.096Z,31.80
2018-09-17T10:36:32.657Z,31.10
2018-09-17T10:41:35.187Z,31.20
2018-09-17T10:46:37.807Z,32.60
2018-09-17T10:51:40.343Z,32.40
2018-09-17T10:56:42.996Z,31.60
2018-09-17T11:01:45.541Z,32.50
2018-09-17T11:06:48.081Z,33.30
2018-09-17T11:11:50.616Z,34.50
2018-09-17T11:16:53.184Z,34.40
2018-09-17T11:21:55.752Z,34.00
2018-09-17T11:26:58.286Z,34.20
2018-09-17T11:32:00.907Z,34.00
2018-09-17T11:37:03.473Z,34.30
2018-09-17T11:42:06.379Z,35.20
2018-09-17T11:47:09.242Z,34.80
2018-09-17T11:52:11.777Z,34.90
2018-09-17T11:57:14.337Z,35.50
2018-09-17T12:02:22.570Z,36.90
2018-09-17T12:07:30.799Z,36.50
2018-09-17T12:12:33.331Z,36.80
2018-09-17T12:17:37.830Z,37.30
2018-09-17T12:22:40.433Z,38.20
2018-09-17T12:27:43.006Z,39.00
2018-09-17T12:32:45.551Z,38.40
2018-09-17T12:37:48.073Z,38.00
2018-09-17T12:42:50.631Z,39.20
2018-09-17T12:47:53.752Z,39.70
2018-09-17T12:52:56.335Z,40.20
2018-09-17T12:57:58.979Z,42.50
2018-09-17T13:03:01.526Z,42.80
2018-09-17T13:08:04.136Z,41.60
2018-09-17T13:13:06.752Z,41.00
2018-09-17T13:18:09.267Z,42.30
2018-09-17T13:23:11.884Z,42.70
2018-09-17T13:28:14.778Z,42.10
2018-09-17T13:33:17.298Z,42.30
2018-09-17T13:38:19.843Z,44.50
2018-09-17T13:43:22.414Z,44.20
2018-09-17T13:48:24.920Z,43.20
2018-09-17T13:53:27.496Z,42.20
2018-09-17T13:58:30.479Z,43.20
2018-09-17T14:03:33.035Z,43.00
2018-09-17T14:08:35.633Z,43.50
2018-09-17T14:13:38.155Z,42.50
2018-09-17T14:18:40.740Z,41.90
2018-09-17T14:23:43.274Z,44.40
2018-09-17T14:28:45.870Z,44.80
2018-09-17T14:33:48.440Z,44.20
2018-09-17T14:38:51.064Z,43.80
2018-09-17T14:43:53.742Z,43.40
2018-09-17T14:48:56.341Z,44.50
2018-09-17T14:53:58.935Z,43.90
2018-09-17T14:59:01.452Z,44.10
2018-09-17T15:04:04.044Z,45.50
2018-09-17T15:09:07.683Z,43.90
2018-09-17T15:14:11.506Z,43.60
2018-09-17T15:19:14.034Z,44.40
2018-09-17T15:24:16.587Z,43.30
2018-09-17T15:29:19.133Z,42.20
2018-09-17T15:34:21.865Z,42.60
2018-09-17T15:39:24.381Z,43.60
2018-09-17T15:44:27.042Z,43.20
2018-09-17T15:49:29.533Z,42.30
2018-09-17T15:54:32.077Z,43.10
2018-09-17T15:59:34.624Z,41.60
2018-09-17T16:04:37.467Z,42.70
2018-09-17T16:09:40.019Z,42.00
2018-09-17T16:14:42.616Z,41.70
2018-09-17T16:19:45.131Z,41.10
2018-09-17T16:24:47.659Z,41.00
2018-09-17T16:29:50.267Z,41.10
2018-09-17T16:34:52.865Z,39.70
2018-09-17T16:39:55.460Z,39.10
2018-09-17T16:44:58.072Z,38.60
2018-09-17T16:50:00.587Z,37.20
2018-09-17T16:55:03.257Z,34.00
2018-09-17T17:00:05.955Z,30.60
2018-09-17T17:05:08.636Z,28.30
2018-09-17T17:10:11.445Z,26.40
2018-09-17T17:15:14.054Z,23.80
2018-09-17T17:20:16.645Z,22.80
2018-09-17T17:25:19.334Z,22.80
2018-09-17T17:30:22.107Z,22.20
2018-09-17T17:35:24.779Z,21.70
2018-09-17T17:40:27.446Z,21.20
2018-09-17T17:45:30.119Z,20.70
2018-09-17T17:50:32.849Z,20.80
2018-09-17T17:55:35.533Z,20.40
2018-09-17T18:00:38.426Z,19.60
2018-09-17T18:05:41.146Z,19.40
2018-09-17T18:10:43.891Z,19.20
2018-09-17T18:15:46.462Z,19.10
2018-09-17T18:20:49.690Z,19.00
2018-09-17T18:25:52.276Z,18.90
2018-09-17T18:30:54.832Z,18.60
2018-09-17T18:35:57.423Z,18.40
2018-09-17T18:41:00.003Z,18.20
2018-09-17T18:46:02.579Z,18.00
2018-09-17T18:51:05.519Z,18.00
2018-09-17T18:56:08.267Z,19.10
2018-09-17T19:01:10.934Z,18.10
2018-09-17T19:06:13.577Z,17.80
2018-09-17T19:11:16.177Z,17.70
2018-09-17T19:16:23.308Z,17.60
2018-09-17T19:21:31.725Z,17.30
2018-09-17T19:26:34.268Z,17.10
2018-09-17T19:31:36.927Z,16.90
2018-09-17T19:36:39.471Z,16.80
2018-09-17T19:41:42.908Z,16.70
2018-09-17T19:46:45.607Z,16.60
2018-09-17T19:52:24.553Z,16.50
2018-09-17T19:57:32.846Z,16.30
2018-09-17T20:02:35.537Z,16.10
2018-09-17T20:07:38.284Z,15.90
2018-09-17T20:12:40.839Z,15.70
2018-09-17T20:17:43.425Z,15.60
2018-09-17T20:22:46.071Z,15.50
2018-09-17T20:27:48.640Z,15.50
2018-09-17T20:32:51.723Z,16.70
2018-09-17T20:37:54.323Z,15.30
2018-09-17T20:42:56.915Z,15.30
2018-09-17T20:47:59.545Z,15.20
2018-09-17T20:53:02.543Z,15.10
2018-09-17T20:58:05.131Z,15.10
2018-09-17T21:03:07.803Z,16.20
2018-09-17T21:08:10.404Z,15.10
2018-09-17T21:13:13.030Z,15.00
2018-09-17T21:18:15.587Z,14.90
2018-09-17T21:23:18.165Z,14.90
2018-09-17T21:28:20.804Z,14.90
2018-09-17T21:33:23.345Z,14.90
2018-09-17T21:38:26.125Z,14.80
2018-09-17T21:43:28.663Z,14.80
2018-09-17T21:48:31.307Z,14.70
2018-09-17T21:53:34.139Z,14.80
2018-09-17T21:58:37.008Z,14.90
2018-09-17T22:03:39.651Z,14.90
2018-09-17T22:08:42.252Z,14.80
2018-09-17T22:13:44.901Z,14.70
2018-09-17T22:18:47.415Z,14.60
2018-09-17T22:23:50.061Z,14.50
2018-09-17T22:28:52.633Z,14.40
2018-09-17T22:33:55.179Z,14.30
2018-09-17T22:38:57.832Z,14.10
2018-09-17T22:44:00.427Z,14.00
2018-09-17T22:49:03.335Z,13.90
2018-09-17T22:54:05.883Z,13.80
2018-09-17T22:59:08.535Z,13.70
2018-09-17T23:04:12.004Z,13.70
2018-09-17T23:09:14.521Z,13.70
2018-09-17T23:14:17.096Z,13.70
2018-09-17T23:19:19.718Z,13.70
2018-09-17T23:24:22.259Z,13.70
2018-09-17T23:29:24.816Z,13.70
2018-09-17T23:34:27.467Z,13.60
2018-09-17T23:39:29.973Z,13.50
2018-09-17T23:44:32.519Z,13.40
2018-09-17T23:49:35.147Z,13.40
2018-09-17T23:54:37.714Z,13.70
2018-09-17T23:59:40.295Z,13.60
